Accueil
METAR-TAF:

METAR-TAF

Aéroports :

Aéroport international de Genève

Genève, Suisse

latitude: 46-15N, longitude: 006-08E, altitude: 420 m

Observation

Le bulletin a été fait il y a 27 minutes, à 20:50 UTC
Vent 2 kt de sud-ouest
Température 14°C
Humidité 88%
Pression 1029 hPa
Visibilité 10 km ou plus
Quelques nuages à une hauteur de 4500 ft

METAR: LSGG 062050Z 23002KT 9999 FEW045 14/12 Q1029 NOSIG

Heure: 23:17 (21:17 UTC)

Prévision

Le bulletin a été fait il y a 52 minutes, à 20:25 UTC
Prévision valable du 06 à 21 UTC au 08 à 03 UTC
Vent 2 kt de direction variable
Visibilité 10 km ou plus
Quelques nuages à une hauteur de 4000 ft
Probabilité 30% :
Temporairement
du 07 à 04 UTC au 07 à 10 UTC
Nuages fragmentés à une hauteur de 1200 ft
Temporairement
du 07 à 12 UTC au 07 à 18 UTC
Vent 12 kt de sud-ouest

TAF: LSGG 062025Z 0621/0803 VRB02KT 9999 FEW040 TX21/0715Z TN10/0705Z PROB30 TEMPO 0704/0710 BKN012 TEMPO 0712/0718 23012KT

Observations et prévisions météorologiques de plus de 4000 aéroports (messages METAR et TAF).

Les stations disponibles sont représentées par des disques jaunes et rouges sur la carte.

Passer la souris dessus pour voir le nom de la station.

Cliquer dessus pour voir les observations et prévisions météorologiques.

Pour changer de carte: cliquez sur les boutons verts avec une croix noire pour zoomer, sur le bouton vert avec un tiret pour effectuer un zoom arrière, ou sur les flèches vertes pour les cartes adjacentes.


METAR-TAF: